sensor_id;sensor_type;location;lat;lon;timestamp;temperature;humidity
17341;DHT22;8788;49.930;8.660;2023-12-22T00:01:56;6.90;99.90
17341;DHT22;8788;49.930;8.660;2023-12-22T00:04:23;6.90;99.90
17341;DHT22;8788;49.930;8.660;2023-12-22T00:06:50;6.80;99.90
17341;DHT22;8788;49.930;8.660;2023-12-22T00:09:18;6.90;99.90
17341;DHT22;8788;49.930;8.660;2023-12-22T00:11:46;6.90;99.90
17341;DHT22;8788;49.930;8.660;2023-12-22T00:14:13;7.00;99.90
17341;DHT22;8788;49.930;8.660;2023-12-22T00:16:40;7.00;99.90
17341;DHT22;8788;49.930;8.660;2023-12-22T00:19:07;6.90;99.90
17341;DHT22;8788;49.930;8.660;2023-12-22T00:21:35;6.90;99.90
17341;DHT22;8788;49.930;8.660;2023-12-22T00:24:02;6.90;99.90
17341;DHT22;8788;49.930;8.660;2023-12-22T00:26:30;6.90;99.90
17341;DHT22;8788;49.930;8.660;2023-12-22T00:28:58;7.00;99.90
17341;DHT22;8788;49.930;8.660;2023-12-22T00:31:25;7.00;99.90
17341;DHT22;8788;49.930;8.660;2023-12-22T00:33:52;7.00;99.90
17341;DHT22;8788;49.930;8.660;2023-12-22T00:36:19;6.90;99.90
17341;DHT22;8788;49.930;8.660;2023-12-22T00:38:50;6.90;99.90
17341;DHT22;8788;49.930;8.660;2023-12-22T00:41:17;7.00;99.90
17341;DHT22;8788;49.930;8.660;2023-12-22T00:43:44;7.00;99.90
17341;DHT22;8788;49.930;8.660;2023-12-22T00:46:13;7.00;99.90
17341;DHT22;8788;49.930;8.660;2023-12-22T00:48:40;7.00;99.90
17341;DHT22;8788;49.930;8.660;2023-12-22T00:51:07;7.00;99.90
17341;DHT22;8788;49.930;8.660;2023-12-22T00:53:34;7.00;99.90
17341;DHT22;8788;49.930;8.660;2023-12-22T00:56:01;7.00;99.90
17341;DHT22;8788;49.930;8.660;2023-12-22T00:58:28;7.10;99.90
17341;DHT22;8788;49.930;8.660;2023-12-22T01:00:55;7.10;99.90
17341;DHT22;8788;49.930;8.660;2023-12-22T01:03:24;7.00;99.90
17341;DHT22;8788;49.930;8.660;2023-12-22T01:05:51;7.00;99.90
17341;DHT22;8788;49.930;8.660;2023-12-22T01:08:18;7.00;99.90
17341;DHT22;8788;49.930;8.660;2023-12-22T01:10:46;7.00;99.90
17341;DHT22;8788;49.930;8.660;2023-12-22T01:13:13;7.00;99.90
17341;DHT22;8788;49.930;8.660;2023-12-22T01:15:40;7.00;99.90
17341;DHT22;8788;49.930;8.660;2023-12-22T01:18:09;7.00;99.90
17341;DHT22;8788;49.930;8.660;2023-12-22T01:20:38;7.00;99.90
17341;DHT22;8788;49.930;8.660;2023-12-22T01:23:05;7.00;99.90
17341;DHT22;8788;49.930;8.660;2023-12-22T01:25:32;7.00;99.90
17341;DHT22;8788;49.930;8.660;2023-12-22T01:27:59;7.10;99.90
17341;DHT22;8788;49.930;8.660;2023-12-22T01:30:26;7.20;99.90
17341;DHT22;8788;49.930;8.660;2023-12-22T01:32:53;7.30;99.90
17341;DHT22;8788;49.930;8.660;2023-12-22T01:35:21;7.40;99.90
17341;DHT22;8788;49.930;8.660;2023-12-22T01:37:49;7.40;99.90
17341;DHT22;8788;49.930;8.660;2023-12-22T01:40:17;7.30;99.90
17341;DHT22;8788;49.930;8.660;2023-12-22T01:42:44;7.40;99.90
17341;DHT22;8788;49.930;8.660;2023-12-22T01:45:11;7.40;99.90
17341;DHT22;8788;49.930;8.660;2023-12-22T01:47:38;7.40;99.90
17341;DHT22;8788;49.930;8.660;2023-12-22T01:50:06;7.40;99.90
17341;DHT22;8788;49.930;8.660;2023-12-22T01:52:36;7.40;99.90
17341;DHT22;8788;49.930;8.660;2023-12-22T01:55:06;7.40;99.90
17341;DHT22;8788;49.930;8.660;2023-12-22T01:57:34;7.50;99.90
17341;DHT22;8788;49.930;8.660;2023-12-22T02:00:02;7.50;99.90
17341;DHT22;8788;49.930;8.660;2023-12-22T02:02:37;7.50;99.90
17341;DHT22;8788;49.930;8.660;2023-12-22T02:05:06;7.50;99.90
17341;DHT22;8788;49.930;8.660;2023-12-22T02:07:35;7.60;99.90
17341;DHT22;8788;49.930;8.660;2023-12-22T02:10:02;7.60;99.90
17341;DHT22;8788;49.930;8.660;2023-12-22T02:12:31;7.60;99.90
17341;DHT22;8788;49.930;8.660;2023-12-22T02:14:58;7.50;99.90
17341;DHT22;8788;49.930;8.660;2023-12-22T02:17:32;7.50;99.90
17341;DHT22;8788;49.930;8.660;2023-12-22T02:19:59;7.50;99.90
17341;DHT22;8788;49.930;8.660;2023-12-22T02:22:30;7.40;99.90
17341;DHT22;8788;49.930;8.660;2023-12-22T02:24:57;7.30;99.90
17341;DHT22;8788;49.930;8.660;2023-12-22T02:27:29;7.30;99.90
17341;DHT22;8788;49.930;8.660;2023-12-22T02:30:12;7.30;99.90
17341;DHT22;8788;49.930;8.660;2023-12-22T02:32:43;7.30;99.90
17341;DHT22;8788;49.930;8.660;2023-12-22T02:35:15;7.30;99.90
17341;DHT22;8788;49.930;8.660;2023-12-22T02:37:45;7.40;99.90
17341;DHT22;8788;49.930;8.660;2023-12-22T02:40:14;7.40;99.90
17341;DHT22;8788;49.930;8.660;2023-12-22T02:42:41;7.40;99.90
17341;DHT22;8788;49.930;8.660;2023-12-22T02:45:13;7.40;99.90
17341;DHT22;8788;49.930;8.660;2023-12-22T02:47:41;7.40;99.90
17341;DHT22;8788;49.930;8.660;2023-12-22T02:50:09;7.40;99.90
17341;DHT22;8788;49.930;8.660;2023-12-22T02:52:36;7.50;99.90
17341;DHT22;8788;49.930;8.660;2023-12-22T02:55:05;7.50;99.90
17341;DHT22;8788;49.930;8.660;2023-12-22T02:57:32;7.50;99.90
17341;DHT22;8788;49.930;8.660;2023-12-22T02:59:59;7.40;99.90
17341;DHT22;8788;49.930;8.660;2023-12-22T03:02:26;7.40;99.90
17341;DHT22;8788;49.930;8.660;2023-12-22T03:04:53;7.40;99.90
17341;DHT22;8788;49.930;8.660;2023-12-22T03:07:20;7.40;99.90
17341;DHT22;8788;49.930;8.660;2023-12-22T03:09:47;7.40;99.90
17341;DHT22;8788;49.930;8.660;2023-12-22T03:12:16;7.40;99.90
17341;DHT22;8788;49.930;8.660;2023-12-22T03:14:43;7.50;99.90
17341;DHT22;8788;49.930;8.660;2023-12-22T03:17:10;7.50;99.90
17341;DHT22;8788;49.930;8.660;2023-12-22T03:19:37;7.60;99.90
17341;DHT22;8788;49.930;8.660;2023-12-22T03:22:04;7.60;99.90
17341;DHT22;8788;49.930;8.660;2023-12-22T03:24:31;7.60;99.90
17341;DHT22;8788;49.930;8.660;2023-12-22T03:26:59;7.60;99.90
17341;DHT22;8788;49.930;8.660;2023-12-22T03:29:27;7.60;99.90
17341;DHT22;8788;49.930;8.660;2023-12-22T03:31:54;7.50;99.90
17341;DHT22;8788;49.930;8.660;2023-12-22T03:34:21;7.50;99.90
17341;DHT22;8788;49.930;8.660;2023-12-22T03:36:48;7.50;99.90
17341;DHT22;8788;49.930;8.660;2023-12-22T03:39:16;7.50;99.90
17341;DHT22;8788;49.930;8.660;2023-12-22T03:41:43;7.60;99.90
17341;DHT22;8788;49.930;8.660;2023-12-22T03:44:10;7.60;99.90
17341;DHT22;8788;49.930;8.660;2023-12-22T03:46:38;7.60;99.90
17341;DHT22;8788;49.930;8.660;2023-12-22T03:49:05;7.40;99.90
17341;DHT22;8788;49.930;8.660;2023-12-22T03:51:32;7.30;99.90
17341;DHT22;8788;49.930;8.660;2023-12-22T03:53:59;7.30;99.90
17341;DHT22;8788;49.930;8.660;2023-12-22T03:56:27;7.30;99.90
17341;DHT22;8788;49.930;8.660;2023-12-22T03:58:55;7.30;99.90
17341;DHT22;8788;49.930;8.660;2023-12-22T04:01:22;7.40;99.90
17341;DHT22;8788;49.930;8.660;2023-12-22T04:03:50;7.40;99.90
17341;DHT22;8788;49.930;8.660;2023-12-22T04:06:17;7.50;99.90
17341;DHT22;8788;49.930;8.660;2023-12-22T04:08:44;7.50;99.90
17341;DHT22;8788;49.930;8.660;2023-12-22T04:11:11;7.50;99.90
17341;DHT22;8788;49.930;8.660;2023-12-22T04:13:38;7.50;99.90
17341;DHT22;8788;49.930;8.660;2023-12-22T04:16:06;7.60;99.90
17341;DHT22;8788;49.930;8.660;2023-12-22T04:18:33;7.60;99.90
17341;DHT22;8788;49.930;8.660;2023-12-22T04:21:01;7.60;99.90
17341;DHT22;8788;49.930;8.660;2023-12-22T04:23:28;7.70;99.90
17341;DHT22;8788;49.930;8.660;2023-12-22T04:25:55;7.70;99.90
17341;DHT22;8788;49.930;8.660;2023-12-22T04:28:22;7.70;99.90
17341;DHT22;8788;49.930;8.660;2023-12-22T04:30:49;7.70;99.90
17341;DHT22;8788;49.930;8.660;2023-12-22T04:33:17;7.70;99.90
17341;DHT22;8788;49.930;8.660;2023-12-22T04:35:44;7.70;99.90
17341;DHT22;8788;49.930;8.660;2023-12-22T04:38:12;7.70;99.90
17341;DHT22;8788;49.930;8.660;2023-12-22T04:40:39;7.70;99.90
17341;DHT22;8788;49.930;8.660;2023-12-22T04:43:06;7.70;99.90
17341;DHT22;8788;49.930;8.660;2023-12-22T04:45:33;7.80;99.90
17341;DHT22;8788;49.930;8.660;2023-12-22T04:48:00;7.80;99.90
17341;DHT22;8788;49.930;8.660;2023-12-22T04:50:27;7.70;99.90
17341;DHT22;8788;49.930;8.660;2023-12-22T04:52:54;7.70;99.90
17341;DHT22;8788;49.930;8.660;2023-12-22T04:55:23;7.70;99.90
17341;DHT22;8788;49.930;8.660;2023-12-22T04:57:50;7.70;99.90
17341;DHT22;8788;49.930;8.660;2023-12-22T05:00:17;7.70;99.90
17341;DHT22;8788;49.930;8.660;2023-12-22T05:02:44;7.70;99.90
17341;DHT22;8788;49.930;8.660;2023-12-22T05:05:11;7.70;99.90
17341;DHT22;8788;49.930;8.660;2023-12-22T05:07:38;7.70;99.90
17341;DHT22;8788;49.930;8.660;2023-12-22T05:10:07;7.70;99.90
17341;DHT22;8788;49.930;8.660;2023-12-22T05:12:35;7.70;99.90
17341;DHT22;8788;49.930;8.660;2023-12-22T05:15:03;7.70;99.90
17341;DHT22;8788;49.930;8.660;2023-12-22T05:17:30;7.70;99.90
17341;DHT22;8788;49.930;8.660;2023-12-22T05:19:58;7.70;99.90
17341;DHT22;8788;49.930;8.660;2023-12-22T05:22:25;7.70;99.90
17341;DHT22;8788;49.930;8.660;2023-12-22T05:24:57;7.70;99.90
17341;DHT22;8788;49.930;8.660;2023-12-22T05:27:25;7.70;99.90
17341;DHT22;8788;49.930;8.660;2023-12-22T05:29:54;7.70;99.90
17341;DHT22;8788;49.930;8.660;2023-12-22T05:32:21;7.70;99.90
17341;DHT22;8788;49.930;8.660;2023-12-22T05:34:48;7.70;99.90
17341;DHT22;8788;49.930;8.660;2023-12-22T05:37:15;7.80;99.90
17341;DHT22;8788;49.930;8.660;2023-12-22T05:39:43;7.90;99.90
17341;DHT22;8788;49.930;8.660;2023-12-22T05:42:11;7.90;99.90
17341;DHT22;8788;49.930;8.660;2023-12-22T05:44:38;7.90;99.90
17341;DHT22;8788;49.930;8.660;2023-12-22T05:47:07;7.80;99.90
17341;DHT22;8788;49.930;8.660;2023-12-22T05:49:34;7.90;99.90
17341;DHT22;8788;49.930;8.660;2023-12-22T05:52:01;7.80;99.90
17341;DHT22;8788;49.930;8.660;2023-12-22T05:54:28;7.90;99.90
17341;DHT22;8788;49.930;8.660;2023-12-22T05:56:55;7.90;99.90
17341;DHT22;8788;49.930;8.660;2023-12-22T05:59:22;7.90;99.90
17341;DHT22;8788;49.930;8.660;2023-12-22T06:01:53;7.90;99.90
17341;DHT22;8788;49.930;8.660;2023-12-22T06:04:21;7.90;99.90
17341;DHT22;8788;49.930;8.660;2023-12-22T06:06:48;7.90;99.90
17341;DHT22;8788;49.930;8.660;2023-12-22T06:09:16;8.00;99.90
17341;DHT22;8788;49.930;8.660;2023-12-22T06:11:44;8.00;99.90
17341;DHT22;8788;49.930;8.660;2023-12-22T06:14:11;7.90;99.90
17341;DHT22;8788;49.930;8.660;2023-12-22T06:16:39;8.00;99.90
17341;DHT22;8788;49.930;8.660;2023-12-22T06:19:06;7.90;99.90
17341;DHT22;8788;49.930;8.660;2023-12-22T06:21:37;7.90;99.90
17341;DHT22;8788;49.930;8.660;2023-12-22T06:24:04;7.90;99.90
17341;DHT22;8788;49.930;8.660;2023-12-22T06:26:32;7.90;99.90
17341;DHT22;8788;49.930;8.660;2023-12-22T06:28:59;7.90;99.90
17341;DHT22;8788;49.930;8.660;2023-12-22T06:31:26;7.90;99.90
17341;DHT22;8788;49.930;8.660;2023-12-22T06:33:53;7.90;99.90
17341;DHT22;8788;49.930;8.660;2023-12-22T06:36:20;7.90;99.90
17341;DHT22;8788;49.930;8.660;2023-12-22T06:38:49;7.90;99.90
17341;DHT22;8788;49.930;8.660;2023-12-22T06:41:20;7.90;99.90
17341;DHT22;8788;49.930;8.660;2023-12-22T06:43:47;7.90;99.90
17341;DHT22;8788;49.930;8.660;2023-12-22T06:46:15;7.90;99.90
17341;DHT22;8788;49.930;8.660;2023-12-22T06:48:43;7.90;99.90
17341;DHT22;8788;49.930;8.660;2023-12-22T06:51:17;7.90;99.90
17341;DHT22;8788;49.930;8.660;2023-12-22T06:53:45;7.80;99.90
17341;DHT22;8788;49.930;8.660;2023-12-22T06:56:17;7.80;99.90
17341;DHT22;8788;49.930;8.660;2023-12-22T06:58:44;7.80;99.90
17341;DHT22;8788;49.930;8.660;2023-12-22T07:01:17;7.80;99.90
17341;DHT22;8788;49.930;8.660;2023-12-22T07:03:44;7.80;99.90
17341;DHT22;8788;49.930;8.660;2023-12-22T07:06:11;7.90;99.90
17341;DHT22;8788;49.930;8.660;2023-12-22T07:08:38;7.90;99.90
17341;DHT22;8788;49.930;8.660;2023-12-22T07:11:05;7.90;99.90
17341;DHT22;8788;49.930;8.660;2023-12-22T07:13:34;7.90;99.90
17341;DHT22;8788;49.930;8.660;2023-12-22T07:16:01;7.90;99.90
17341;DHT22;8788;49.930;8.660;2023-12-22T07:18:28;7.90;99.90
17341;DHT22;8788;49.930;8.660;2023-12-22T07:20:56;7.90;99.90
17341;DHT22;8788;49.930;8.660;2023-12-22T07:23:24;7.90;99.90
17341;DHT22;8788;49.930;8.660;2023-12-22T07:25:51;7.80;99.90
17341;DHT22;8788;49.930;8.660;2023-12-22T07:28:18;7.80;99.90
17341;DHT22;8788;49.930;8.660;2023-12-22T07:30:46;7.80;99.90
17341;DHT22;8788;49.930;8.660;2023-12-22T07:33:13;7.80;99.90
17341;DHT22;8788;49.930;8.660;2023-12-22T07:35:40;7.90;99.90
17341;DHT22;8788;49.930;8.660;2023-12-22T07:38:07;7.90;99.90
17341;DHT22;8788;49.930;8.660;2023-12-22T07:40:35;8.00;99.90
17341;DHT22;8788;49.930;8.660;2023-12-22T07:43:02;8.00;99.90
17341;DHT22;8788;49.930;8.660;2023-12-22T07:45:29;8.00;99.90
17341;DHT22;8788;49.930;8.660;2023-12-22T07:47:58;8.00;99.90
17341;DHT22;8788;49.930;8.660;2023-12-22T07:50:25;8.00;99.90
17341;DHT22;8788;49.930;8.660;2023-12-22T07:52:53;8.10;99.90
17341;DHT22;8788;49.930;8.660;2023-12-22T07:55:20;8.20;99.90
17341;DHT22;8788;49.930;8.660;2023-12-22T07:57:47;8.20;99.90
17341;DHT22;8788;49.930;8.660;2023-12-22T08:00:15;8.30;99.90
17341;DHT22;8788;49.930;8.660;2023-12-22T08:02:42;8.30;99.90
17341;DHT22;8788;49.930;8.660;2023-12-22T08:05:10;8.30;99.90
17341;DHT22;8788;49.930;8.660;2023-12-22T08:07:37;8.40;99.90
17341;DHT22;8788;49.930;8.660;2023-12-22T08:10:05;8.40;99.90
17341;DHT22;8788;49.930;8.660;2023-12-22T08:12:32;8.50;99.90
17341;DHT22;8788;49.930;8.660;2023-12-22T08:14:59;8.60;99.90
17341;DHT22;8788;49.930;8.660;2023-12-22T08:17:26;8.60;99.90
17341;DHT22;8788;49.930;8.660;2023-12-22T08:19:53;8.60;99.90
17341;DHT22;8788;49.930;8.660;2023-12-22T08:22:22;8.70;99.90
17341;DHT22;8788;49.930;8.660;2023-12-22T08:24:49;8.60;99.90
17341;DHT22;8788;49.930;8.660;2023-12-22T08:27:16;8.70;99.90
17341;DHT22;8788;49.930;8.660;2023-12-22T08:29:43;8.70;99.90
17341;DHT22;8788;49.930;8.660;2023-12-22T08:32:10;8.70;99.90
17341;DHT22;8788;49.930;8.660;2023-12-22T08:34:37;8.80;99.90
17341;DHT22;8788;49.930;8.660;2023-12-22T08:37:04;8.80;99.90
17341;DHT22;8788;49.930;8.660;2023-12-22T08:39:33;8.70;99.90
17341;DHT22;8788;49.930;8.660;2023-12-22T08:42:00;8.70;99.90
17341;DHT22;8788;49.930;8.660;2023-12-22T08:44:27;8.70;99.90
17341;DHT22;8788;49.930;8.660;2023-12-22T08:46:54;8.60;99.90
17341;DHT22;8788;49.930;8.660;2023-12-22T08:49:21;8.50;99.90
17341;DHT22;8788;49.930;8.660;2023-12-22T08:51:48;8.40;99.90
17341;DHT22;8788;49.930;8.660;2023-12-22T08:54:15;8.40;99.90
17341;DHT22;8788;49.930;8.660;2023-12-22T08:56:43;8.30;99.90
17341;DHT22;8788;49.930;8.660;2023-12-22T08:59:10;8.30;99.90
17341;DHT22;8788;49.930;8.660;2023-12-22T09:01:37;8.30;99.90
17341;DHT22;8788;49.930;8.660;2023-12-22T09:04:06;8.30;99.90
17341;DHT22;8788;49.930;8.660;2023-12-22T09:06:33;8.30;99.90
17341;DHT22;8788;49.930;8.660;2023-12-22T09:09:00;8.30;99.90
17341;DHT22;8788;49.930;8.660;2023-12-22T09:11:29;8.30;99.90
17341;DHT22;8788;49.930;8.660;2023-12-22T09:13:58;8.30;99.90
17341;DHT22;8788;49.930;8.660;2023-12-22T09:16:25;8.20;99.90
17341;DHT22;8788;49.930;8.660;2023-12-22T09:18:52;8.20;99.90
17341;DHT22;8788;49.930;8.660;2023-12-22T09:21:19;8.20;99.90
17341;DHT22;8788;49.930;8.660;2023-12-22T09:23:46;8.20;99.90
17341;DHT22;8788;49.930;8.660;2023-12-22T09:26:15;8.20;99.90
17341;DHT22;8788;49.930;8.660;2023-12-22T09:28:44;8.20;99.90
17341;DHT22;8788;49.930;8.660;2023-12-22T09:31:12;8.20;99.90
17341;DHT22;8788;49.930;8.660;2023-12-22T09:33:40;8.10;99.90
17341;DHT22;8788;49.930;8.660;2023-12-22T09:36:08;8.10;99.90
17341;DHT22;8788;49.930;8.660;2023-12-22T09:38:36;8.10;99.90
17341;DHT22;8788;49.930;8.660;2023-12-22T09:41:03;8.10;99.90
17341;DHT22;8788;49.930;8.660;2023-12-22T09:43:32;8.20;99.90
17341;DHT22;8788;49.930;8.660;2023-12-22T09:46:01;8.30;99.90
17341;DHT22;8788;49.930;8.660;2023-12-22T09:48:31;8.30;99.90
17341;DHT22;8788;49.930;8.660;2023-12-22T09:51:02;8.20;99.90
17341;DHT22;8788;49.930;8.660;2023-12-22T09:53:31;8.20;99.90
17341;DHT22;8788;49.930;8.660;2023-12-22T09:55:59;8.10;99.90
17341;DHT22;8788;49.930;8.660;2023-12-22T09:58:27;8.10;99.90
17341;DHT22;8788;49.930;8.660;2023-12-22T10:00:55;8.10;99.90
17341;DHT22;8788;49.930;8.660;2023-12-22T10:03:24;8.10;99.90
17341;DHT22;8788;49.930;8.660;2023-12-22T10:05:53;8.20;99.90
17341;DHT22;8788;49.930;8.660;2023-12-22T10:08:20;8.20;99.90
17341;DHT22;8788;49.930;8.660;2023-12-22T10:10:47;8.20;99.90
17341;DHT22;8788;49.930;8.660;2023-12-22T10:13:18;8.20;99.90
17341;DHT22;8788;49.930;8.660;2023-12-22T10:15:45;8.30;99.90
17341;DHT22;8788;49.930;8.660;2023-12-22T10:18:13;8.30;99.90
17341;DHT22;8788;49.930;8.660;2023-12-22T10:20:41;8.40;99.90
17341;DHT22;8788;49.930;8.660;2023-12-22T10:23:10;8.40;99.90
17341;DHT22;8788;49.930;8.660;2023-12-22T10:25:40;8.40;99.90
17341;DHT22;8788;49.930;8.660;2023-12-22T10:28:10;8.50;99.90
17341;DHT22;8788;49.930;8.660;2023-12-22T10:30:38;8.40;99.90
17341;DHT22;8788;49.930;8.660;2023-12-22T10:33:06;8.40;99.90
17341;DHT22;8788;49.930;8.660;2023-12-22T10:35:34;8.50;99.90
17341;DHT22;8788;49.930;8.660;2023-12-22T10:38:01;8.50;99.90
17341;DHT22;8788;49.930;8.660;2023-12-22T10:40:30;8.60;99.90
17341;DHT22;8788;49.930;8.660;2023-12-22T10:42:58;8.60;99.90
17341;DHT22;8788;49.930;8.660;2023-12-22T10:45:26;8.70;99.90
17341;DHT22;8788;49.930;8.660;2023-12-22T10:47:55;8.80;99.90
17341;DHT22;8788;49.930;8.660;2023-12-22T10:50:22;8.80;99.90
17341;DHT22;8788;49.930;8.660;2023-12-22T10:52:50;8.90;99.90
17341;DHT22;8788;49.930;8.660;2023-12-22T10:55:17;8.90;99.90
17341;DHT22;8788;49.930;8.660;2023-12-22T10:57:46;8.90;99.90
17341;DHT22;8788;49.930;8.660;2023-12-22T11:00:15;9.00;99.90
17341;DHT22;8788;49.930;8.660;2023-12-22T11:02:42;9.10;99.90
17341;DHT22;8788;49.930;8.660;2023-12-22T11:05:11;9.20;99.90
17341;DHT22;8788;49.930;8.660;2023-12-22T11:07:38;9.20;99.90
17341;DHT22;8788;49.930;8.660;2023-12-22T11:10:07;9.30;99.90
17341;DHT22;8788;49.930;8.660;2023-12-22T11:12:35;9.40;99.90
17341;DHT22;8788;49.930;8.660;2023-12-22T11:15:05;9.40;99.90
17341;DHT22;8788;49.930;8.660;2023-12-22T11:17:33;9.50;99.90
17341;DHT22;8788;49.930;8.660;2023-12-22T11:20:02;9.50;99.90
17341;DHT22;8788;49.930;8.660;2023-12-22T11:22:31;9.50;99.90
17341;DHT22;8788;49.930;8.660;2023-12-22T11:25:00;9.60;99.90
17341;DHT22;8788;49.930;8.660;2023-12-22T11:27:29;9.60;99.90
17341;DHT22;8788;49.930;8.660;2023-12-22T11:29:57;9.60;99.90
17341;DHT22;8788;49.930;8.660;2023-12-22T11:32:27;9.70;99.90
17341;DHT22;8788;49.930;8.660;2023-12-22T11:34:57;9.70;99.90
17341;DHT22;8788;49.930;8.660;2023-12-22T11:37:26;9.70;99.90
17341;DHT22;8788;49.930;8.660;2023-12-22T11:39:53;9.70;99.90
17341;DHT22;8788;49.930;8.660;2023-12-22T11:42:23;9.70;99.90
17341;DHT22;8788;49.930;8.660;2023-12-22T11:44:52;9.70;99.90
17341;DHT22;8788;49.930;8.660;2023-12-22T11:47:23;9.70;99.90
17341;DHT22;8788;49.930;8.660;2023-12-22T11:49:51;9.70;99.90
17341;DHT22;8788;49.930;8.660;2023-12-22T11:52:25;9.70;99.90
17341;DHT22;8788;49.930;8.660;2023-12-22T11:54:55;9.70;99.90
17341;DHT22;8788;49.930;8.660;2023-12-22T11:57:35;9.80;99.90
17341;DHT22;8788;49.930;8.660;2023-12-22T12:00:07;9.80;99.90
17341;DHT22;8788;49.930;8.660;2023-12-22T12:02:41;9.70;99.90
17341;DHT22;8788;49.930;8.660;2023-12-22T12:05:12;9.80;99.90
17341;DHT22;8788;49.930;8.660;2023-12-22T12:07:43;9.70;99.90
17341;DHT22;8788;49.930;8.660;2023-12-22T12:10:11;9.70;99.90
17341;DHT22;8788;49.930;8.660;2023-12-22T12:12:38;9.70;99.90
17341;DHT22;8788;49.930;8.660;2023-12-22T12:15:10;9.70;99.90
17341;DHT22;8788;49.930;8.660;2023-12-22T12:17:41;9.70;99.90
17341;DHT22;8788;49.930;8.660;2023-12-22T12:20:11;9.70;99.90
17341;DHT22;8788;49.930;8.660;2023-12-22T12:22:38;9.70;99.90
17341;DHT22;8788;49.930;8.660;2023-12-22T12:25:10;9.70;99.90
17341;DHT22;8788;49.930;8.660;2023-12-22T12:27:38;9.70;99.90
17341;DHT22;8788;49.930;8.660;2023-12-22T12:30:13;9.80;99.90
17341;DHT22;8788;49.930;8.660;2023-12-22T12:32:44;9.80;99.90
17341;DHT22;8788;49.930;8.660;2023-12-22T12:35:13;9.80;99.90
17341;DHT22;8788;49.930;8.660;2023-12-22T12:37:40;9.70;99.90
17341;DHT22;8788;49.930;8.660;2023-12-22T12:40:11;9.70;99.90
17341;DHT22;8788;49.930;8.660;2023-12-22T12:42:38;9.80;99.90
17341;DHT22;8788;49.930;8.660;2023-12-22T12:45:07;9.80;99.90
17341;DHT22;8788;49.930;8.660;2023-12-22T12:47:34;9.80;99.90
17341;DHT22;8788;49.930;8.660;2023-12-22T12:50:02;9.80;99.90
17341;DHT22;8788;49.930;8.660;2023-12-22T12:52:31;9.80;99.90
17341;DHT22;8788;49.930;8.660;2023-12-22T12:54:58;9.90;99.90
17341;DHT22;8788;49.930;8.660;2023-12-22T12:57:26;9.90;99.90
17341;DHT22;8788;49.930;8.660;2023-12-22T12:59:53;10.00;99.90
17341;DHT22;8788;49.930;8.660;2023-12-22T13:02:20;10.00;99.90
17341;DHT22;8788;49.930;8.660;2023-12-22T13:04:49;10.00;99.90
17341;DHT22;8788;49.930;8.660;2023-12-22T13:07:24;10.00;99.90
17341;DHT22;8788;49.930;8.660;2023-12-22T13:09:53;10.10;99.90
17341;DHT22;8788;49.930;8.660;2023-12-22T13:12:23;10.10;99.90
17341;DHT22;8788;49.930;8.660;2023-12-22T13:14:51;10.20;99.90
17341;DHT22;8788;49.930;8.660;2023-12-22T13:17:18;10.20;99.90
17341;DHT22;8788;49.930;8.660;2023-12-22T13:19:45;10.20;99.90
17341;DHT22;8788;49.930;8.660;2023-12-22T13:22:12;10.20;99.90
17341;DHT22;8788;49.930;8.660;2023-12-22T13:24:40;10.20;99.90
17341;DHT22;8788;49.930;8.660;2023-12-22T13:27:08;10.20;99.90
17341;DHT22;8788;49.930;8.660;2023-12-22T13:29:43;10.30;99.90
17341;DHT22;8788;49.930;8.660;2023-12-22T13:32:15;10.30;99.90
17341;DHT22;8788;49.930;8.660;2023-12-22T13:34:50;10.40;99.90
17341;DHT22;8788;49.930;8.660;2023-12-22T13:37:17;10.40;99.90
17341;DHT22;8788;49.930;8.660;2023-12-22T13:39:45;10.40;99.90
17341;DHT22;8788;49.930;8.660;2023-12-22T13:42:18;10.40;99.90
17341;DHT22;8788;49.930;8.660;2023-12-22T13:44:48;10.40;99.90
17341;DHT22;8788;49.930;8.660;2023-12-22T13:47:15;10.40;99.90
17341;DHT22;8788;49.930;8.660;2023-12-22T13:49:43;10.50;99.90
17341;DHT22;8788;49.930;8.660;2023-12-22T13:52:25;10.50;99.90
17341;DHT22;8788;49.930;8.660;2023-12-22T13:54:52;10.50;99.90
17341;DHT22;8788;49.930;8.660;2023-12-22T13:57:23;10.50;99.90
17341;DHT22;8788;49.930;8.660;2023-12-22T13:59:50;10.50;99.90
17341;DHT22;8788;49.930;8.660;2023-12-22T14:02:20;10.50;99.90
17341;DHT22;8788;49.930;8.660;2023-12-22T14:04:49;10.50;99.90
17341;DHT22;8788;49.930;8.660;2023-12-22T14:07:16;10.50;99.90
17341;DHT22;8788;49.930;8.660;2023-12-22T14:09:43;10.50;99.90
17341;DHT22;8788;49.930;8.660;2023-12-22T14:12:10;10.50;99.90
17341;DHT22;8788;49.930;8.660;2023-12-22T14:14:39;10.50;99.90
17341;DHT22;8788;49.930;8.660;2023-12-22T14:17:06;10.50;99.90
17341;DHT22;8788;49.930;8.660;2023-12-22T14:19:33;10.60;99.90
17341;DHT22;8788;49.930;8.660;2023-12-22T14:22:00;10.60;99.90
17341;DHT22;8788;49.930;8.660;2023-12-22T14:24:27;10.60;99.90
17341;DHT22;8788;49.930;8.660;2023-12-22T14:26:55;10.60;99.90
17341;DHT22;8788;49.930;8.660;2023-12-22T14:29:22;10.70;99.90
17341;DHT22;8788;49.930;8.660;2023-12-22T14:31:51;10.70;99.90
17341;DHT22;8788;49.930;8.660;2023-12-22T14:34:18;10.70;99.90
17341;DHT22;8788;49.930;8.660;2023-12-22T14:36:46;10.70;99.90
17341;DHT22;8788;49.930;8.660;2023-12-22T14:39:13;10.80;99.90
17341;DHT22;8788;49.930;8.660;2023-12-22T14:41:40;10.80;99.90
17341;DHT22;8788;49.930;8.660;2023-12-22T14:44:07;10.80;99.90
17341;DHT22;8788;49.930;8.660;2023-12-22T14:46:37;10.80;99.90
17341;DHT22;8788;49.930;8.660;2023-12-22T14:49:07;10.80;99.90
17341;DHT22;8788;49.930;8.660;2023-12-22T14:51:37;10.80;99.90
17341;DHT22;8788;49.930;8.660;2023-12-22T14:54:04;10.80;99.90
17341;DHT22;8788;49.930;8.660;2023-12-22T14:56:31;10.90;99.90
17341;DHT22;8788;49.930;8.660;2023-12-22T14:58:59;10.90;99.90
17341;DHT22;8788;49.930;8.660;2023-12-22T15:01:26;10.90;99.90
17341;DHT22;8788;49.930;8.660;2023-12-22T15:03:54;10.90;99.90
17341;DHT22;8788;49.930;8.660;2023-12-22T15:06:22;10.90;99.90
17341;DHT22;8788;49.930;8.660;2023-12-22T15:08:49;10.90;99.90
17341;DHT22;8788;49.930;8.660;2023-12-22T15:11:17;10.90;99.90
17341;DHT22;8788;49.930;8.660;2023-12-22T15:13:44;10.90;99.90
17341;DHT22;8788;49.930;8.660;2023-12-22T15:16:11;10.90;99.90
17341;DHT22;8788;49.930;8.660;2023-12-22T15:18:38;10.90;99.90
17341;DHT22;8788;49.930;8.660;2023-12-22T15:21:05;11.00;99.90
17341;DHT22;8788;49.930;8.660;2023-12-22T15:23:34;10.90;99.90
17341;DHT22;8788;49.930;8.660;2023-12-22T15:26:01;11.00;99.90
17341;DHT22;8788;49.930;8.660;2023-12-22T15:28:28;11.00;99.90
17341;DHT22;8788;49.930;8.660;2023-12-22T15:30:55;11.00;99.90
17341;DHT22;8788;49.930;8.660;2023-12-22T15:33:22;11.00;99.90
17341;DHT22;8788;49.930;8.660;2023-12-22T15:35:54;11.00;99.90
17341;DHT22;8788;49.930;8.660;2023-12-22T15:38:21;11.00;99.90
17341;DHT22;8788;49.930;8.660;2023-12-22T15:40:50;11.00;99.90
17341;DHT22;8788;49.930;8.660;2023-12-22T15:43:17;11.00;99.90
17341;DHT22;8788;49.930;8.660;2023-12-22T15:45:44;11.00;99.90
17341;DHT22;8788;49.930;8.660;2023-12-22T15:48:13;11.10;99.90
17341;DHT22;8788;49.930;8.660;2023-12-22T15:50:40;11.10;99.90
17341;DHT22;8788;49.930;8.660;2023-12-22T15:53:08;11.10;99.90
17341;DHT22;8788;49.930;8.660;2023-12-22T15:55:35;11.10;99.90
17341;DHT22;8788;49.930;8.660;2023-12-22T15:58:04;11.10;99.90
17341;DHT22;8788;49.930;8.660;2023-12-22T16:00:31;11.10;99.90
17341;DHT22;8788;49.930;8.660;2023-12-22T16:02:58;11.10;99.90
17341;DHT22;8788;49.930;8.660;2023-12-22T16:05:25;11.00;99.90